createdAt,value
2022-09-16T00:00:42.298Z,1.90
2022-09-16T00:03:08.625Z,1.60
2022-09-16T00:05:37.711Z,1.48
2022-09-16T00:08:03.940Z,1.30
2022-09-16T00:10:31.038Z,1.30
2022-09-16T00:12:57.253Z,1.70
2022-09-16T00:15:23.506Z,1.50
2022-09-16T00:17:49.727Z,1.45
2022-09-16T00:20:16.127Z,1.35
2022-09-16T00:22:42.321Z,1.20
2022-09-16T00:25:08.803Z,1.92
2022-09-16T00:27:35.001Z,1.27
2022-09-16T00:30:01.518Z,1.25
2022-09-16T00:32:27.802Z,1.30
2022-09-16T00:34:54.036Z,1.55
2022-09-16T00:37:20.332Z,1.10
2022-09-16T00:39:50.246Z,1.77
2022-09-16T00:42:17.277Z,1.25
2022-09-16T00:44:49.498Z,1.83
2022-09-16T00:47:18.183Z,1.30
2022-09-16T00:49:45.233Z,1.55
2022-09-16T00:52:11.672Z,1.40
2022-09-16T00:54:39.523Z,1.63
2022-09-16T00:57:06.542Z,1.83
2022-09-16T00:59:34.877Z,1.60
2022-09-16T01:02:05.870Z,1.65
2022-09-16T01:04:34.931Z,2.03
2022-09-16T01:07:01.473Z,1.40
2022-09-16T01:09:29.151Z,1.75
2022-09-16T01:11:55.350Z,1.55
2022-09-16T01:14:41.451Z,1.95
2022-09-16T01:17:23.161Z,1.90
2022-09-16T01:22:26.790Z,1.90
2022-09-16T01:25:06.979Z,1.77
2022-09-16T01:27:52.112Z,1.80
2022-09-16T01:30:36.018Z,1.70
2022-09-16T01:33:34.604Z,2.15
2022-09-16T01:36:08.433Z,1.77
2022-09-16T01:38:37.668Z,1.92
2022-09-16T01:41:09.735Z,1.70
2022-09-16T01:43:42.340Z,1.92
2022-09-16T01:46:21.667Z,2.58
2022-09-16T01:49:08.120Z,2.22
2022-09-16T01:51:54.582Z,1.92
2022-09-16T01:54:20.865Z,2.13
2022-09-16T01:56:50.046Z,2.20
2022-09-16T01:59:21.858Z,2.22
2022-09-16T02:01:54.164Z,2.10
2022-09-16T02:04:23.578Z,2.28
2022-09-16T02:06:51.307Z,1.98
2022-09-16T02:09:20.436Z,2.20
2022-09-16T02:11:47.265Z,2.50
2022-09-16T02:14:15.146Z,1.90
2022-09-16T02:16:47.311Z,2.28
2022-09-16T02:19:17.391Z,2.45
2022-09-16T02:21:45.978Z,2.55
2022-09-16T02:24:16.066Z,2.10
2022-09-16T02:26:44.103Z,2.65
2022-09-16T02:29:16.197Z,2.33
2022-09-16T02:31:44.216Z,2.45
2022-09-16T02:34:15.462Z,2.67
2022-09-16T02:36:44.167Z,2.30
2022-09-16T02:39:11.371Z,2.35
2022-09-16T02:41:38.604Z,2.65
2022-09-16T02:44:05.501Z,2.13
2022-09-16T02:46:39.752Z,2.72
2022-09-16T02:49:13.980Z,2.72
2022-09-16T02:51:42.952Z,2.10
2022-09-16T02:54:09.200Z,2.45
2022-09-16T02:56:39.652Z,1.90
2022-09-16T02:59:06.554Z,2.05
2022-09-16T03:01:34.209Z,1.83
2022-09-16T03:04:00.542Z,1.98
2022-09-16T03:06:27.552Z,1.88
2022-09-16T03:08:55.482Z,2.53
2022-09-16T03:11:31.108Z,1.88
2022-09-16T03:13:58.070Z,2.13
2022-09-16T03:16:36.225Z,2.38
2022-09-16T03:19:21.228Z,2.45
2022-09-16T03:21:50.242Z,2.42
2022-09-16T03:24:16.446Z,2.75
2022-09-16T03:26:46.576Z,2.55
2022-09-16T03:29:18.014Z,2.53
2022-09-16T03:32:03.194Z,2.60
2022-09-16T03:34:35.574Z,2.42
2022-09-16T03:37:04.735Z,2.33
2022-09-16T03:39:31.038Z,2.45
2022-09-16T03:42:00.677Z,2.10
2022-09-16T03:44:33.985Z,2.63
2022-09-16T03:47:00.211Z,2.03
2022-09-16T03:49:26.409Z,2.40
2022-09-16T03:51:52.638Z,2.50
2022-09-16T03:54:18.866Z,2.38
2022-09-16T03:56:45.056Z,2.35
2022-09-16T03:59:11.226Z,2.75
2022-09-16T04:01:37.512Z,2.47
2022-09-16T04:04:04.017Z,2.40
2022-09-16T04:06:30.276Z,2.50
2022-09-16T04:09:00.767Z,2.15
2022-09-16T04:11:29.630Z,2.15
2022-09-16T04:13:55.866Z,3.00
2022-09-16T04:16:22.163Z,2.70
2022-09-16T04:18:48.723Z,2.65
2022-09-16T04:21:15.183Z,2.30
2022-09-16T04:23:41.483Z,2.60
2022-09-16T04:26:07.758Z,3.10
2022-09-16T04:28:33.974Z,2.70
2022-09-16T04:31:05.053Z,2.65
2022-09-16T04:33:32.272Z,2.67
2022-09-16T04:36:09.010Z,2.60
2022-09-16T04:38:35.688Z,2.42
2022-09-16T04:41:03.876Z,2.75
2022-09-16T04:43:30.210Z,2.20
2022-09-16T04:45:56.535Z,2.40
2022-09-16T04:48:23.234Z,2.35
2022-09-16T04:50:49.496Z,2.22
2022-09-16T04:53:15.721Z,2.70
2022-09-16T04:55:41.916Z,2.50
2022-09-16T04:58:08.141Z,2.33
2022-09-16T05:00:34.337Z,2.53
2022-09-16T05:03:00.714Z,2.40
2022-09-16T05:05:27.067Z,2.75
2022-09-16T05:07:53.571Z,2.60
2022-09-16T05:10:19.767Z,3.00
2022-09-16T05:12:50.347Z,2.50
2022-09-16T05:15:16.583Z,2.75
2022-09-16T05:17:51.547Z,2.72
2022-09-16T05:20:18.114Z,2.28
2022-09-16T05:22:44.440Z,2.83
2022-09-16T05:25:10.664Z,2.83
2022-09-16T05:27:36.877Z,2.22
2022-09-16T05:30:03.261Z,2.38
2022-09-16T05:32:29.471Z,2.05
2022-09-16T05:34:56.152Z,2.38
2022-09-16T05:37:22.417Z,1.88
2022-09-16T05:39:49.182Z,3.35
2022-09-16T05:42:15.442Z,2.22
2022-09-16T05:44:41.646Z,2.03
2022-09-16T05:47:07.849Z,1.77
2022-09-16T05:49:34.043Z,2.50
2022-09-16T05:52:00.218Z,2.05
2022-09-16T05:54:26.427Z,2.30
2022-09-16T05:56:52.680Z,2.03
2022-09-16T05:59:19.180Z,2.00
2022-09-16T06:01:45.900Z,2.22
2022-09-16T06:04:12.820Z,2.45
2022-09-16T06:06:40.186Z,1.70
2022-09-16T06:09:14.752Z,1.92
2022-09-16T06:11:42.598Z,2.13
2022-09-16T06:14:09.325Z,1.90
2022-09-16T06:16:36.026Z,2.20
2022-09-16T06:19:03.234Z,2.15
2022-09-16T06:21:29.873Z,1.88
2022-09-16T06:23:56.417Z,2.30
2022-09-16T06:26:24.226Z,1.83
2022-09-16T06:28:51.130Z,2.10
2022-09-16T06:31:27.581Z,2.08
2022-09-16T06:33:54.944Z,2.35
2022-09-16T06:36:23.571Z,2.15
2022-09-16T06:38:51.094Z,2.15
2022-09-16T06:41:18.186Z,2.17
2022-09-16T06:43:44.594Z,2.10
2022-09-16T06:46:18.967Z,2.30
2022-09-16T06:48:46.577Z,2.40
2022-09-16T06:51:14.735Z,2.28
2022-09-16T06:53:40.946Z,1.77
2022-09-16T06:56:10.713Z,2.28
2022-09-16T06:58:37.347Z,1.90
2022-09-16T07:01:23.059Z,2.03
2022-09-16T07:03:50.675Z,2.15
2022-09-16T07:06:17.705Z,1.75
2022-09-16T07:08:44.695Z,2.45
2022-09-16T07:11:12.082Z,1.80
2022-09-16T07:13:38.720Z,2.13
2022-09-16T07:16:13.442Z,1.65
2022-09-16T07:18:40.384Z,1.58
2022-09-16T07:21:11.560Z,1.85
2022-09-16T07:23:38.540Z,1.80
2022-09-16T07:26:04.799Z,1.92
2022-09-16T07:28:31.576Z,1.50
2022-09-16T07:31:00.625Z,1.50
2022-09-16T07:33:26.835Z,1.70
2022-09-16T07:35:53.031Z,1.20
2022-09-16T07:38:19.207Z,1.65
2022-09-16T07:40:45.382Z,1.73
2022-09-16T07:43:12.070Z,1.65
2022-09-16T07:45:38.391Z,1.20
2022-09-16T07:48:04.741Z,1.45
2022-09-16T07:50:30.938Z,1.20
2022-09-16T07:52:57.228Z,1.52
2022-09-16T07:55:23.438Z,1.33
2022-09-16T07:57:49.630Z,1.55
2022-09-16T08:00:16.411Z,1.48
2022-09-16T08:02:42.846Z,1.42
2022-09-16T08:05:09.988Z,1.55
2022-09-16T08:07:36.462Z,1.67
2022-09-16T08:10:02.862Z,1.48
2022-09-16T08:12:32.414Z,1.35
2022-09-16T08:14:59.410Z,1.50
2022-09-16T08:17:27.151Z,1.80
2022-09-16T08:19:55.105Z,1.92
2022-09-16T08:22:23.400Z,2.15
2022-09-16T08:24:49.604Z,2.45
2022-09-16T08:27:15.778Z,2.03
2022-09-16T08:29:41.980Z,2.20
2022-09-16T08:32:08.401Z,2.10
2022-09-16T08:34:34.746Z,1.80
2022-09-16T08:37:01.045Z,1.77
2022-09-16T08:39:27.227Z,1.60
2022-09-16T08:42:09.492Z,1.40
2022-09-16T08:44:42.105Z,1.67
2022-09-16T08:47:12.101Z,1.20
2022-09-16T08:49:45.765Z,1.17
2022-09-16T08:52:18.966Z,1.50
2022-09-16T08:54:47.676Z,1.25
2022-09-16T08:57:25.402Z,1.38
2022-09-16T08:59:54.000Z,1.42
2022-09-16T09:02:38.876Z,1.40
2022-09-16T09:05:14.949Z,1.30
2022-09-16T09:08:05.826Z,1.10
2022-09-16T09:11:01.125Z,1.03
2022-09-16T09:13:53.664Z,1.00
2022-09-16T09:16:28.092Z,1.02
2022-09-16T09:18:54.487Z,0.93
2022-09-16T09:21:32.894Z,1.08
2022-09-16T09:24:08.227Z,1.05
2022-09-16T09:26:51.563Z,1.10
2022-09-16T09:29:17.758Z,1.17
2022-09-16T09:32:07.596Z,1.23
2022-09-16T09:34:53.288Z,1.08
2022-09-16T09:37:32.167Z,1.13
2022-09-16T09:40:10.531Z,1.05
2022-09-16T09:42:52.268Z,0.90
2022-09-16T09:45:37.522Z,1.08
2022-09-16T09:48:15.309Z,1.13
2022-09-16T09:50:43.555Z,0.98
2022-09-16T09:53:31.843Z,0.90
2022-09-16T09:56:08.236Z,0.80
2022-09-16T09:58:40.828Z,0.93
2022-09-16T10:01:08.207Z,0.90
2022-09-16T10:03:34.476Z,1.13
2022-09-16T10:06:00.681Z,0.88
2022-09-16T10:08:29.873Z,0.80
2022-09-16T10:10:59.421Z,1.00
2022-09-16T10:13:26.516Z,1.00
2022-09-16T10:15:55.602Z,0.88
2022-09-16T10:18:27.340Z,0.90
2022-09-16T10:20:59.288Z,0.80
2022-09-16T10:23:29.598Z,0.98
2022-09-16T10:26:06.986Z,1.00
2022-09-16T10:28:33.377Z,0.65
2022-09-16T10:31:00.520Z,1.10
2022-09-16T10:33:40.771Z,0.88
2022-09-16T10:36:08.650Z,0.45
2022-09-16T10:38:37.610Z,0.85
2022-09-16T10:41:08.717Z,0.98
2022-09-16T10:43:36.898Z,0.80
2022-09-16T10:46:04.628Z,1.08
2022-09-16T10:48:31.840Z,1.10
2022-09-16T10:50:58.076Z,1.00
2022-09-16T10:53:27.643Z,0.90
2022-09-16T10:55:58.146Z,0.95
2022-09-16T10:58:24.900Z,0.70
2022-09-16T11:00:51.237Z,0.60
2022-09-16T11:03:34.428Z,0.80
2022-09-16T11:06:03.359Z,0.77
2022-09-16T11:08:35.776Z,1.02
2022-09-16T11:11:13.988Z,0.80
2022-09-16T11:13:46.082Z,0.80
2022-09-16T11:16:30.611Z,1.17
2022-09-16T11:19:14.588Z,0.70
2022-09-16T11:21:55.939Z,0.80
2022-09-16T11:24:32.723Z,0.60
2022-09-16T11:27:16.648Z,0.85
2022-09-16T11:30:01.478Z,0.50
2022-09-16T11:32:30.857Z,0.65
2022-09-16T11:35:06.316Z,0.50
2022-09-16T11:37:35.383Z,0.55
2022-09-16T11:40:07.766Z,0.63
2022-09-16T11:42:35.132Z,1.02
2022-09-16T11:45:20.347Z,0.88
2022-09-16T11:47:49.646Z,0.73
2022-09-16T11:50:28.119Z,0.77
2022-09-16T11:53:04.822Z,0.80
2022-09-16T11:55:38.362Z,0.68
2022-09-16T11:58:23.390Z,0.75
2022-09-16T12:00:51.669Z,0.63
2022-09-16T12:03:29.465Z,0.90
2022-09-16T12:06:04.582Z,0.75
2022-09-16T12:08:49.702Z,0.80
2022-09-16T12:11:27.150Z,0.65
2022-09-16T12:14:05.618Z,0.60
2022-09-16T12:16:35.522Z,1.05
2022-09-16T12:19:07.073Z,0.93
2022-09-16T12:24:10.442Z,0.80
2022-09-16T12:26:39.508Z,0.80
2022-09-16T12:29:05.737Z,0.93
2022-09-16T12:31:38.983Z,0.90
2022-09-16T12:34:16.673Z,0.68
2022-09-16T12:36:45.324Z,0.60
2022-09-16T12:39:12.548Z,1.10
2022-09-16T12:41:57.314Z,0.70
2022-09-16T12:44:34.378Z,0.68
2022-09-16T12:47:07.947Z,0.60
2022-09-16T12:49:53.647Z,1.02
2022-09-16T12:52:29.410Z,1.02
2022-09-16T12:55:14.404Z,0.90
2022-09-16T12:57:57.995Z,1.17
2022-09-16T13:00:27.075Z,1.45
2022-09-16T13:02:58.715Z,1.40
2022-09-16T13:07:54.398Z,1.23
2022-09-16T13:10:46.793Z,1.67
2022-09-16T13:13:19.827Z,0.98
2022-09-16T13:15:54.579Z,1.00
2022-09-16T13:18:23.209Z,1.05
2022-09-16T13:21:00.056Z,0.95
2022-09-16T13:23:32.615Z,0.85
2022-09-16T13:26:00.241Z,0.90
2022-09-16T13:28:26.516Z,0.85
2022-09-16T13:30:53.036Z,0.70
2022-09-16T13:33:22.921Z,0.70
2022-09-16T13:36:02.965Z,0.85
2022-09-16T13:38:38.491Z,1.00
2022-09-16T13:41:04.869Z,0.80
2022-09-16T13:43:43.121Z,1.02
2022-09-16T13:46:18.401Z,0.85
2022-09-16T13:48:54.955Z,0.70
2022-09-16T13:51:22.034Z,0.80
2022-09-16T13:53:49.509Z,0.70
2022-09-16T13:56:24.776Z,0.70
2022-09-16T13:58:56.990Z,0.73
2022-09-16T14:01:37.018Z,0.75
2022-09-16T14:04:22.593Z,1.08
2022-09-16T14:06:55.557Z,0.80
2022-09-16T14:09:22.080Z,0.70
2022-09-16T14:11:54.022Z,0.75
2022-09-16T14:14:46.948Z,0.63
2022-09-16T14:17:15.624Z,0.90
2022-09-16T14:19:42.502Z,0.80
2022-09-16T14:22:11.794Z,0.90
2022-09-16T14:24:39.332Z,1.10
2022-09-16T14:27:17.497Z,1.25
2022-09-16T14:29:53.428Z,0.93
2022-09-16T14:32:19.665Z,0.85
2022-09-16T14:34:45.879Z,0.75
2022-09-16T14:37:16.294Z,0.80
2022-09-16T14:39:43.748Z,1.10
2022-09-16T14:42:14.938Z,0.90
2022-09-16T14:44:51.189Z,1.00
2022-09-16T14:47:50.610Z,0.93
2022-09-16T14:50:25.129Z,1.20
2022-09-16T14:53:01.423Z,1.00
2022-09-16T14:55:31.991Z,0.95
2022-09-16T14:57:58.929Z,0.90
2022-09-16T15:00:28.234Z,0.90
2022-09-16T15:03:03.801Z,1.00
2022-09-16T15:05:38.260Z,0.70
2022-09-16T15:08:14.186Z,0.70
2022-09-16T15:10:56.730Z,0.80
2022-09-16T15:13:25.450Z,0.80
2022-09-16T15:15:54.501Z,0.60
2022-09-16T15:18:28.329Z,0.80
2022-09-16T15:21:00.181Z,0.80
2022-09-16T15:23:27.352Z,0.75
2022-09-16T15:25:55.689Z,0.60
2022-09-16T15:28:22.300Z,0.70
2022-09-16T15:30:51.001Z,0.80
2022-09-16T15:33:29.887Z,0.68
2022-09-16T15:35:58.727Z,0.80
2022-09-16T15:38:25.053Z,1.00
2022-09-16T15:41:01.303Z,0.90
2022-09-16T15:43:29.291Z,0.70
2022-09-16T15:46:03.056Z,1.10
2022-09-16T15:48:31.149Z,0.80
2022-09-16T15:51:00.822Z,0.80
2022-09-16T15:53:30.105Z,0.90
2022-09-16T15:56:01.420Z,0.73
2022-09-16T15:58:28.015Z,1.05
2022-09-16T16:00:59.421Z,0.85
2022-09-16T16:03:25.850Z,1.08
2022-09-16T16:05:52.472Z,0.60
2022-09-16T16:08:39.847Z,0.90
2022-09-16T16:11:07.880Z,0.70
2022-09-16T16:13:34.427Z,0.70
2022-09-16T16:16:00.979Z,0.70
2022-09-16T16:18:27.238Z,1.33
2022-09-16T16:20:53.500Z,0.80
2022-09-16T16:23:19.766Z,0.90
2022-09-16T16:25:48.091Z,1.30
2022-09-16T16:28:14.284Z,0.98
2022-09-16T16:30:41.515Z,0.90
2022-09-16T16:33:07.897Z,0.88
2022-09-16T16:35:34.229Z,0.90
2022-09-16T16:38:00.429Z,1.30
2022-09-16T16:40:26.803Z,1.35
2022-09-16T16:42:53.099Z,1.02
2022-09-16T16:45:19.473Z,1.15
2022-09-16T16:47:46.215Z,1.00
2022-09-16T16:50:12.455Z,1.48
2022-09-16T16:52:38.639Z,1.10
2022-09-16T16:55:05.247Z,1.17
2022-09-16T16:57:31.501Z,0.77
2022-09-16T16:59:57.834Z,0.93
2022-09-16T17:02:24.299Z,1.17
2022-09-16T17:04:50.565Z,0.95
2022-09-16T17:07:32.585Z,0.95
2022-09-16T17:09:58.883Z,1.23
2022-09-16T17:12:25.495Z,1.00
2022-09-16T17:14:51.867Z,1.40
2022-09-16T17:17:18.110Z,1.20
2022-09-16T17:19:44.589Z,1.20
2022-09-16T17:22:11.140Z,1.40
2022-09-16T17:24:37.380Z,1.00
2022-09-16T17:27:04.205Z,1.00
2022-09-16T17:29:30.430Z,1.10
2022-09-16T17:31:57.303Z,1.38
2022-09-16T17:34:26.300Z,1.40
2022-09-16T17:36:52.672Z,1.15
2022-09-16T17:39:20.545Z,1.10
2022-09-16T17:41:48.707Z,1.20
2022-09-16T17:44:15.279Z,1.30
2022-09-16T17:46:42.901Z,1.20
2022-09-16T17:49:23.496Z,1.58
2022-09-16T17:51:50.094Z,1.25
2022-09-16T17:54:16.400Z,1.38
2022-09-16T17:56:42.967Z,1.20
2022-09-16T17:59:09.897Z,1.58
2022-09-16T18:01:36.341Z,1.48
2022-09-16T18:04:02.885Z,1.25
2022-09-16T18:06:30.903Z,1.35
2022-09-16T18:09:00.881Z,1.40
2022-09-16T18:11:27.087Z,1.23
2022-09-16T18:13:54.525Z,1.30
2022-09-16T18:16:21.235Z,1.70
2022-09-16T18:18:50.089Z,1.55
2022-09-16T18:21:18.094Z,1.50
2022-09-16T18:23:44.394Z,1.60
2022-09-16T18:26:11.969Z,1.58
2022-09-16T18:29:05.232Z,1.83
2022-09-16T18:31:25.529Z,2.00
2022-09-16T18:33:55.092Z,1.70
2022-09-16T18:36:24.130Z,1.70
2022-09-16T18:38:52.166Z,1.45
2022-09-16T18:41:20.720Z,1.83
2022-09-16T18:43:49.248Z,1.55
2022-09-16T18:46:35.776Z,1.58
2022-09-16T18:49:02.155Z,2.03
2022-09-16T18:51:29.831Z,1.48
2022-09-16T18:53:57.973Z,1.52
2022-09-16T18:56:25.344Z,1.30
2022-09-16T18:59:19.466Z,2.25
2022-09-16T19:01:38.985Z,1.63
2022-09-16T19:04:06.492Z,1.70
2022-09-16T19:06:34.580Z,2.05
2022-09-16T19:09:01.440Z,1.70
2022-09-16T19:11:28.162Z,1.58
2022-09-16T19:13:54.679Z,1.63
2022-09-16T19:16:21.600Z,2.05
2022-09-16T19:18:51.720Z,1.67
2022-09-16T19:21:18.718Z,1.70
2022-09-16T19:23:46.772Z,1.92
2022-09-16T19:26:13.696Z,1.60
2022-09-16T19:28:40.332Z,1.80
2022-09-16T19:31:07.892Z,1.63
2022-09-16T19:33:34.877Z,2.10
2022-09-16T19:36:01.256Z,1.70
2022-09-16T19:38:28.691Z,2.08
2022-09-16T19:41:03.177Z,1.67
2022-09-16T19:43:30.048Z,1.60
2022-09-16T19:46:02.148Z,2.20
2022-09-16T19:48:29.942Z,1.63
2022-09-16T19:50:56.132Z,1.67
2022-09-16T19:53:22.354Z,1.90
2022-09-16T19:55:48.640Z,2.03
2022-09-16T19:58:14.885Z,2.10
2022-09-16T20:00:55.724Z,1.58
2022-09-16T20:05:49.943Z,1.65
2022-09-16T20:08:16.151Z,1.73
2022-09-16T20:10:42.366Z,1.95
2022-09-16T20:13:08.579Z,1.85
2022-09-16T20:15:34.775Z,1.80
2022-09-16T20:18:00.965Z,2.08
2022-09-16T20:20:27.450Z,1.70
2022-09-16T20:22:53.680Z,8.20
2022-09-16T20:25:23.342Z,1.80
2022-09-16T20:27:49.962Z,1.92
2022-09-16T20:30:16.256Z,1.70
2022-09-16T20:32:42.468Z,1.70
2022-09-16T20:35:09.540Z,2.22
2022-09-16T20:37:35.747Z,1.85
2022-09-16T20:40:02.175Z,1.92
2022-09-16T20:42:30.703Z,1.77
2022-09-16T20:44:56.928Z,1.88
2022-09-16T20:47:23.124Z,1.58
2022-09-16T20:49:49.346Z,1.77
2022-09-16T20:52:15.559Z,1.60
2022-09-16T20:54:41.748Z,1.85
2022-09-16T20:57:07.958Z,1.85
2022-09-16T20:59:34.213Z,1.83
2022-09-16T21:02:03.964Z,1.83
2022-09-16T21:04:30.219Z,1.88
2022-09-16T21:06:56.474Z,1.65
2022-09-16T21:09:23.093Z,1.70
2022-09-16T21:11:49.678Z,1.80
2022-09-16T21:14:16.697Z,1.77
2022-09-16T21:16:44.049Z,1.88
2022-09-16T21:19:10.719Z,1.80
2022-09-16T21:21:41.338Z,2.22
2022-09-16T21:24:08.402Z,2.13
2022-09-16T21:26:35.400Z,2.00
2022-09-16T21:29:02.761Z,1.83
2022-09-16T21:31:33.143Z,2.25
2022-09-16T21:34:00.323Z,2.15
2022-09-16T21:36:29.533Z,2.03
2022-09-16T21:38:55.916Z,2.20
2022-09-16T21:41:22.898Z,1.70
2022-09-16T21:43:51.040Z,2.58
2022-09-16T21:46:21.586Z,2.38
2022-09-16T21:48:48.267Z,1.98
2022-09-16T21:51:16.713Z,2.65
2022-09-16T21:53:43.062Z,2.47
2022-09-16T21:56:13.780Z,2.13
2022-09-16T21:58:40.271Z,2.40
2022-09-16T22:01:12.293Z,2.08
2022-09-16T22:03:39.690Z,2.03
2022-09-16T22:06:06.868Z,2.25
2022-09-16T22:08:33.380Z,1.80
2022-09-16T22:11:10.738Z,2.20
2022-09-16T22:13:37.104Z,2.30
2022-09-16T22:16:04.133Z,2.08
2022-09-16T22:18:31.070Z,2.15
2022-09-16T22:21:04.522Z,2.08
2022-09-16T22:23:30.743Z,2.20
2022-09-16T22:25:57.254Z,2.47
2022-09-16T22:28:23.451Z,2.10
2022-09-16T22:30:49.675Z,1.75
2022-09-16T22:33:15.859Z,2.30
2022-09-16T22:35:42.071Z,1.65
2022-09-16T22:38:08.237Z,1.60
2022-09-16T22:40:34.504Z,2.08
2022-09-16T22:43:00.767Z,2.30
2022-09-16T22:45:26.955Z,2.30
2022-09-16T22:47:53.146Z,2.10
2022-09-16T22:50:19.389Z,2.03
2022-09-16T22:52:45.586Z,2.38
2022-09-16T22:55:11.945Z,2.42
2022-09-16T22:57:38.149Z,1.95
2022-09-16T23:00:05.090Z,2.25
2022-09-16T23:02:31.424Z,2.38
2022-09-16T23:04:57.940Z,2.60
2022-09-16T23:07:24.181Z,1.98
2022-09-16T23:09:50.372Z,2.22
2022-09-16T23:12:16.586Z,2.10
2022-09-16T23:14:43.172Z,1.73
2022-09-16T23:17:09.396Z,1.98
2022-09-16T23:19:36.368Z,2.22
2022-09-16T23:22:02.652Z,2.55
2022-09-16T23:24:28.856Z,2.10
2022-09-16T23:26:55.045Z,2.00
2022-09-16T23:29:21.270Z,2.17
2022-09-16T23:31:47.503Z,2.20
2022-09-16T23:34:18.330Z,2.50
2022-09-16T23:36:44.664Z,2.30
2022-09-16T23:39:13.189Z,2.63
2022-09-16T23:41:39.678Z,2.25
2022-09-16T23:44:05.993Z,2.33
2022-09-16T23:46:32.537Z,1.88
2022-09-16T23:48:58.873Z,2.60
2022-09-16T23:51:28.468Z,2.00
2022-09-16T23:53:55.585Z,2.05
2022-09-16T23:56:21.986Z,1.85
2022-09-16T23:58:48.681Z,2.13
